createdAt,value
2022-09-26T00:00:10.375Z,14.70
2022-09-26T00:01:10.463Z,14.82
2022-09-26T00:02:10.395Z,14.78
2022-09-26T00:03:10.348Z,14.81
2022-09-26T00:04:10.380Z,14.78
2022-09-26T00:05:10.340Z,14.82
2022-09-26T00:06:10.338Z,14.78
2022-09-26T00:07:10.291Z,14.78
2022-09-26T00:08:10.311Z,14.73
2022-09-26T00:09:10.289Z,14.79
2022-09-26T00:10:10.311Z,14.68
2022-09-26T00:11:10.270Z,14.81
2022-09-26T00:12:10.268Z,14.73
2022-09-26T00:13:10.257Z,14.81
2022-09-26T00:14:10.224Z,14.70
2022-09-26T00:15:10.242Z,14.68
2022-09-26T00:16:10.363Z,14.69
2022-09-26T00:17:10.280Z,14.68
2022-09-26T00:18:10.190Z,14.65
2022-09-26T00:19:10.219Z,14.69
2022-09-26T00:20:10.160Z,14.63
2022-09-26T00:21:10.149Z,14.69
2022-09-26T00:22:10.151Z,14.68
2022-09-26T00:23:10.137Z,14.69
2022-09-26T00:24:10.152Z,14.65
2022-09-26T00:25:10.106Z,14.70
2022-09-26T00:26:10.097Z,14.66
2022-09-26T00:27:10.090Z,14.66
2022-09-26T00:28:10.085Z,14.66
2022-09-26T00:29:10.124Z,14.70
2022-09-26T00:30:10.061Z,14.66
2022-09-26T00:31:10.160Z,14.68
2022-09-26T00:32:10.033Z,14.65
2022-09-26T00:33:10.029Z,14.66
2022-09-26T00:34:10.018Z,14.72
2022-09-26T00:35:10.028Z,14.66
2022-09-26T00:36:09.989Z,14.63
2022-09-26T00:37:09.978Z,14.65
2022-09-26T00:38:09.972Z,14.62
2022-09-26T00:39:10.058Z,14.54
2022-09-26T00:40:10.097Z,14.63
2022-09-26T00:41:09.967Z,14.60
2022-09-26T00:42:09.978Z,14.63
2022-09-26T00:43:09.949Z,14.59
2022-09-26T00:44:09.895Z,14.60
2022-09-26T00:45:09.895Z,14.58
2022-09-26T00:46:09.902Z,14.59
2022-09-26T00:47:09.900Z,14.62
2022-09-26T00:48:09.854Z,14.60
2022-09-26T00:49:09.840Z,14.55
2022-09-26T00:50:09.833Z,14.53
2022-09-26T00:51:09.830Z,14.47
2022-09-26T00:52:09.853Z,14.45
2022-09-26T00:53:09.801Z,14.44
2022-09-26T00:54:09.785Z,14.43
2022-09-26T00:55:09.770Z,14.37
2022-09-26T00:56:09.817Z,14.44
2022-09-26T00:57:09.811Z,14.41
2022-09-26T00:58:09.744Z,14.43
2022-09-26T00:59:09.746Z,14.37
2022-09-26T01:00:09.747Z,14.36
2022-09-26T01:01:09.839Z,14.47
2022-09-26T01:02:09.919Z,14.43
2022-09-26T01:03:09.681Z,14.47
2022-09-26T01:04:09.679Z,14.29
2022-09-26T01:05:09.668Z,14.30
2022-09-26T01:06:09.678Z,14.20
2022-09-26T01:07:09.682Z,14.28
2022-09-26T01:08:09.643Z,14.22
2022-09-26T01:09:09.622Z,14.18
2022-09-26T01:10:09.637Z,14.11
2022-09-26T01:11:13.571Z,14.17
2022-09-26T01:12:10.598Z,14.15
2022-09-26T01:13:09.586Z,14.17
2022-09-26T01:14:09.578Z,14.15
2022-09-26T01:15:09.564Z,14.11
2022-09-26T01:16:09.634Z,14.15
2022-09-26T01:17:09.547Z,14.18
2022-09-26T01:18:09.530Z,14.20
2022-09-26T01:19:09.523Z,14.20
2022-09-26T01:20:09.492Z,14.18
2022-09-26T01:21:09.487Z,14.20
2022-09-26T01:22:09.494Z,14.23
2022-09-26T01:23:09.468Z,14.23
2022-09-26T01:24:09.462Z,14.17
2022-09-26T01:25:09.460Z,14.17
2022-09-26T01:26:09.451Z,14.17
2022-09-26T01:27:09.426Z,14.20
2022-09-26T01:28:09.430Z,14.15
2022-09-26T01:29:09.410Z,14.15
2022-09-26T01:30:09.391Z,14.22
2022-09-26T01:31:09.425Z,14.23
2022-09-26T01:32:09.387Z,14.25
2022-09-26T01:33:09.353Z,14.25
2022-09-26T01:34:09.344Z,14.18
2022-09-26T01:35:09.334Z,14.20
2022-09-26T01:36:09.341Z,14.14
2022-09-26T01:37:09.332Z,14.12
2022-09-26T01:38:09.314Z,14.15
2022-09-26T01:39:09.335Z,14.12
2022-09-26T01:40:09.288Z,14.17
2022-09-26T01:41:09.286Z,14.18
2022-09-26T01:42:09.272Z,14.18
2022-09-26T01:43:09.250Z,14.23
2022-09-26T01:44:09.263Z,14.14
2022-09-26T01:45:09.222Z,14.20
2022-09-26T01:46:09.327Z,14.23
2022-09-26T01:47:09.208Z,14.18
2022-09-26T01:48:09.216Z,14.20
2022-09-26T01:49:09.251Z,14.17
2022-09-26T01:50:09.172Z,14.22
2022-09-26T01:51:09.156Z,14.20
2022-09-26T01:52:09.153Z,14.18
2022-09-26T01:53:09.143Z,14.23
2022-09-26T01:54:09.154Z,14.22
2022-09-26T01:55:09.110Z,14.20
2022-09-26T01:56:09.101Z,14.23
2022-09-26T01:57:09.100Z,14.28
2022-09-26T01:58:09.094Z,14.11
2022-09-26T01:59:09.195Z,14.14
2022-09-26T02:00:09.083Z,14.17
2022-09-26T02:01:09.234Z,14.15
2022-09-26T02:02:09.120Z,14.26
2022-09-26T02:03:09.029Z,14.17
2022-09-26T02:04:09.026Z,14.17
2022-09-26T02:05:09.031Z,14.17
2022-09-26T02:06:09.012Z,14.18
2022-09-26T02:07:08.972Z,14.18
2022-09-26T02:08:08.968Z,14.18
2022-09-26T02:09:09.014Z,14.22
2022-09-26T02:10:08.951Z,14.18
2022-09-26T02:11:08.970Z,14.20
2022-09-26T02:12:08.930Z,14.17
2022-09-26T02:13:08.933Z,14.20
2022-09-26T02:14:08.912Z,14.20
2022-09-26T02:15:08.901Z,14.17
2022-09-26T02:16:08.993Z,14.20
2022-09-26T02:17:08.906Z,14.14
2022-09-26T02:18:08.865Z,14.11
2022-09-26T02:19:08.940Z,13.96
2022-09-26T02:20:08.841Z,13.92
2022-09-26T02:21:08.847Z,13.92
2022-09-26T02:22:08.812Z,13.79
2022-09-26T02:23:08.800Z,13.89
2022-09-26T02:24:08.795Z,13.90
2022-09-26T02:25:08.778Z,13.96
2022-09-26T02:26:08.784Z,13.96
2022-09-26T02:27:08.766Z,13.87
2022-09-26T02:28:08.756Z,13.93
2022-09-26T02:29:08.819Z,13.95
2022-09-26T02:30:08.721Z,13.92
2022-09-26T02:31:08.727Z,13.75
2022-09-26T02:32:08.822Z,13.83
2022-09-26T02:33:08.693Z,13.90
2022-09-26T02:34:08.680Z,13.85
2022-09-26T02:35:08.663Z,13.83
2022-09-26T02:36:08.659Z,13.90
2022-09-26T02:37:08.643Z,13.89
2022-09-26T02:38:08.643Z,13.92
2022-09-26T02:39:08.672Z,13.92
2022-09-26T02:40:08.610Z,13.97
2022-09-26T02:41:08.601Z,14.03
2022-09-26T02:42:08.599Z,14.04
2022-09-26T02:43:08.610Z,14.05
2022-09-26T02:44:08.561Z,14.03
2022-09-26T02:45:08.559Z,13.99
2022-09-26T02:46:08.587Z,13.96
2022-09-26T02:47:08.532Z,13.96
2022-09-26T02:48:08.535Z,14.03
2022-09-26T02:49:08.575Z,14.04
2022-09-26T02:50:08.506Z,14.05
2022-09-26T02:51:08.485Z,14.05
2022-09-26T02:52:08.482Z,14.10
2022-09-26T02:53:08.469Z,14.00
2022-09-26T02:54:08.472Z,14.05
2022-09-26T02:55:08.443Z,14.12
2022-09-26T02:56:08.429Z,14.17
2022-09-26T02:57:08.417Z,14.15
2022-09-26T02:58:08.427Z,14.14
2022-09-26T02:59:08.401Z,14.11
2022-09-26T03:00:08.407Z,14.08
2022-09-26T03:01:08.431Z,13.99
2022-09-26T03:02:08.369Z,13.92
2022-09-26T03:03:08.357Z,13.96
2022-09-26T03:04:08.366Z,13.81
2022-09-26T03:05:08.377Z,13.79
2022-09-26T03:06:08.363Z,13.83
2022-09-26T03:07:08.306Z,13.85
2022-09-26T03:08:08.308Z,13.86
2022-09-26T03:09:08.368Z,13.79
2022-09-26T03:10:08.286Z,13.79
2022-09-26T03:11:08.264Z,13.83
2022-09-26T03:12:08.275Z,13.74
2022-09-26T03:13:08.240Z,13.78
2022-09-26T03:14:08.235Z,13.78
2022-09-26T03:15:08.226Z,13.77
2022-09-26T03:16:08.282Z,13.71
2022-09-26T03:17:08.225Z,13.68
2022-09-26T03:18:08.184Z,13.65
2022-09-26T03:19:08.170Z,13.70
2022-09-26T03:20:08.265Z,13.78
2022-09-26T03:21:08.162Z,13.79
2022-09-26T03:22:08.139Z,13.85
2022-09-26T03:23:08.143Z,13.87
2022-09-26T03:24:08.125Z,13.85
2022-09-26T03:25:08.117Z,13.92
2022-09-26T03:26:08.098Z,13.92
2022-09-26T03:27:08.091Z,13.93
2022-09-26T03:28:08.095Z,13.81
2022-09-26T03:29:08.079Z,13.83
2022-09-26T03:30:08.053Z,13.78
2022-09-26T03:31:08.051Z,13.74
2022-09-26T03:32:08.136Z,13.78
2022-09-26T03:33:08.032Z,13.75
2022-09-26T03:34:08.037Z,13.81
2022-09-26T03:35:08.002Z,13.77
2022-09-26T03:36:08.092Z,13.81
2022-09-26T03:37:07.971Z,13.77
2022-09-26T03:38:11.329Z,13.83
2022-09-26T03:39:08.988Z,13.89
2022-09-26T03:40:07.947Z,13.81
2022-09-26T03:41:07.946Z,13.92
2022-09-26T03:42:07.930Z,13.93
2022-09-26T03:43:07.918Z,13.96
2022-09-26T03:44:07.918Z,13.99
2022-09-26T03:45:07.891Z,13.83
2022-09-26T03:46:07.958Z,13.83
2022-09-26T03:47:07.869Z,13.77
2022-09-26T03:48:07.854Z,13.67
2022-09-26T03:49:07.844Z,13.71
2022-09-26T03:50:07.847Z,13.71
2022-09-26T03:51:07.841Z,13.71
2022-09-26T03:52:07.846Z,13.68
2022-09-26T03:53:07.797Z,13.71
2022-09-26T03:54:07.794Z,13.77
2022-09-26T03:55:07.789Z,13.79
2022-09-26T03:56:07.774Z,13.75
2022-09-26T03:57:07.766Z,13.75
2022-09-26T03:58:07.745Z,13.83
2022-09-26T03:59:07.729Z,13.89
2022-09-26T04:00:07.763Z,13.81
2022-09-26T04:01:07.806Z,13.89
2022-09-26T04:02:07.756Z,13.87
2022-09-26T04:03:07.686Z,13.87
2022-09-26T04:04:07.676Z,13.78
2022-09-26T04:05:07.664Z,13.81
2022-09-26T04:06:07.662Z,13.83
2022-09-26T04:07:07.668Z,13.75
2022-09-26T04:08:07.645Z,13.78
2022-09-26T04:09:07.653Z,13.78
2022-09-26T04:10:07.614Z,13.74
2022-09-26T04:11:07.613Z,13.81
2022-09-26T04:12:07.588Z,13.72
2022-09-26T04:13:07.588Z,13.83
2022-09-26T04:14:07.576Z,13.83
2022-09-26T04:15:07.585Z,13.79
2022-09-26T04:16:07.615Z,13.79
2022-09-26T04:17:07.533Z,13.85
2022-09-26T04:18:07.526Z,13.78
2022-09-26T04:19:07.519Z,13.86
2022-09-26T04:20:07.498Z,13.86
2022-09-26T04:21:10.005Z,13.87
2022-09-26T04:22:07.482Z,13.77
2022-09-26T04:23:07.464Z,13.79
2022-09-26T04:24:07.469Z,13.85
2022-09-26T04:25:07.473Z,13.78
2022-09-26T04:26:07.439Z,13.77
2022-09-26T04:27:07.438Z,13.60
2022-09-26T04:28:07.417Z,13.50
2022-09-26T04:29:07.402Z,13.42
2022-09-26T04:30:07.399Z,13.52
2022-09-26T04:31:07.522Z,13.52
2022-09-26T04:32:07.391Z,13.54
2022-09-26T04:33:07.364Z,13.52
2022-09-26T04:34:07.355Z,13.53
2022-09-26T04:35:07.351Z,13.49
2022-09-26T04:36:07.336Z,13.53
2022-09-26T04:37:07.318Z,13.57
2022-09-26T04:38:07.310Z,13.53
2022-09-26T04:39:07.297Z,13.54
2022-09-26T04:40:07.304Z,13.59
2022-09-26T04:41:07.395Z,13.59
2022-09-26T04:42:07.253Z,13.60
2022-09-26T04:43:07.250Z,13.59
2022-09-26T04:44:07.242Z,13.59
2022-09-26T04:45:07.221Z,13.62
2022-09-26T04:46:07.296Z,13.59
2022-09-26T04:47:07.221Z,13.67
2022-09-26T04:48:07.196Z,13.74
2022-09-26T04:49:07.184Z,13.71
2022-09-26T04:50:07.183Z,13.70
2022-09-26T04:51:07.160Z,13.71
2022-09-26T04:52:07.144Z,13.68
2022-09-26T04:53:07.158Z,13.68
2022-09-26T04:54:07.124Z,13.74
2022-09-26T04:55:07.111Z,13.63
2022-09-26T04:56:07.120Z,13.68
2022-09-26T04:57:07.110Z,13.67
2022-09-26T04:58:07.106Z,13.63
2022-09-26T04:59:07.205Z,13.63
2022-09-26T05:00:07.055Z,13.54
2022-09-26T05:01:07.148Z,13.56
2022-09-26T05:02:07.109Z,13.50
2022-09-26T05:03:07.069Z,13.56
2022-09-26T05:04:07.048Z,13.54
2022-09-26T05:05:07.016Z,13.47
2022-09-26T05:06:07.043Z,13.47
2022-09-26T05:07:06.986Z,13.52
2022-09-26T05:08:06.981Z,13.53
2022-09-26T05:09:07.112Z,13.47
2022-09-26T05:10:06.954Z,13.44
2022-09-26T05:11:06.932Z,13.47
2022-09-26T05:12:06.942Z,13.47
2022-09-26T05:13:06.920Z,13.42
2022-09-26T05:14:06.921Z,13.47
2022-09-26T05:15:06.899Z,13.44
2022-09-26T05:16:06.984Z,13.42
2022-09-26T05:17:06.870Z,13.49
2022-09-26T05:18:06.859Z,13.42
2022-09-26T05:19:06.851Z,13.44
2022-09-26T05:20:06.857Z,13.37
2022-09-26T05:21:06.863Z,13.42
2022-09-26T05:22:06.812Z,13.41
2022-09-26T05:23:06.802Z,13.33
2022-09-26T05:24:06.791Z,13.38
2022-09-26T05:25:06.785Z,13.31
2022-09-26T05:26:06.767Z,13.25
2022-09-26T05:27:06.787Z,13.05
2022-09-26T05:28:06.869Z,12.97
2022-09-26T05:29:08.741Z,13.11
2022-09-26T05:30:06.722Z,13.01
2022-09-26T05:31:06.773Z,13.04
2022-09-26T05:32:06.783Z,13.05
2022-09-26T05:33:06.703Z,13.03
2022-09-26T05:34:06.679Z,13.05
2022-09-26T05:35:06.681Z,13.12
2022-09-26T05:36:06.660Z,13.16
2022-09-26T05:37:06.644Z,13.13
2022-09-26T05:38:06.642Z,13.15
2022-09-26T05:39:06.765Z,13.09
2022-09-26T05:40:06.665Z,13.13
2022-09-26T05:41:06.642Z,13.09
2022-09-26T05:42:06.595Z,13.15
2022-09-26T05:43:06.594Z,13.20
2022-09-26T05:44:06.616Z,13.22
2022-09-26T05:45:06.605Z,13.27
2022-09-26T05:46:06.555Z,13.28
2022-09-26T05:47:06.628Z,13.27
2022-09-26T05:48:06.526Z,13.28
2022-09-26T05:49:06.516Z,13.27
2022-09-26T05:50:06.510Z,13.23
2022-09-26T05:51:06.541Z,13.35
2022-09-26T05:52:06.488Z,13.33
2022-09-26T05:53:06.493Z,13.38
2022-09-26T05:54:06.462Z,13.46
2022-09-26T05:55:06.466Z,13.42
2022-09-26T05:56:06.456Z,13.41
2022-09-26T05:57:06.477Z,13.49
2022-09-26T05:58:06.450Z,13.49
2022-09-26T05:59:06.502Z,13.46
2022-09-26T06:00:06.437Z,13.52
2022-09-26T06:01:06.548Z,13.47
2022-09-26T06:02:06.467Z,13.53
2022-09-26T06:03:06.374Z,13.54
2022-09-26T06:04:06.366Z,13.62
2022-09-26T06:05:06.353Z,13.56
2022-09-26T06:06:06.375Z,13.70
2022-09-26T06:07:06.328Z,13.72
2022-09-26T06:08:06.345Z,13.62
2022-09-26T06:09:06.327Z,13.72
2022-09-26T06:10:06.290Z,13.74
2022-09-26T06:11:06.280Z,13.70
2022-09-26T06:12:06.273Z,13.68
2022-09-26T06:13:06.301Z,13.75
2022-09-26T06:14:06.247Z,13.68
2022-09-26T06:15:06.231Z,13.75
2022-09-26T06:16:06.371Z,13.77
2022-09-26T06:17:06.207Z,13.70
2022-09-26T06:18:06.203Z,13.78
2022-09-26T06:19:06.264Z,13.65
2022-09-26T06:20:06.189Z,13.77
2022-09-26T06:21:06.163Z,13.67
2022-09-26T06:22:06.178Z,13.79
2022-09-26T06:23:06.144Z,13.74
2022-09-26T06:24:06.156Z,13.77
2022-09-26T06:25:06.159Z,13.74
2022-09-26T06:26:06.104Z,13.65
2022-09-26T06:27:06.097Z,13.67
2022-09-26T06:28:06.098Z,13.71
2022-09-26T06:29:06.130Z,13.70
2022-09-26T06:30:06.092Z,13.71
2022-09-26T06:31:06.106Z,13.65
2022-09-26T06:32:06.149Z,13.71
2022-09-26T06:33:06.061Z,13.77
2022-09-26T06:34:06.046Z,13.75
2022-09-26T06:35:06.030Z,13.78
2022-09-26T06:36:05.999Z,13.81
2022-09-26T06:37:06.002Z,13.89
2022-09-26T06:38:05.989Z,13.85
2022-09-26T06:39:06.026Z,13.87
2022-09-26T06:40:06.011Z,13.78
2022-09-26T06:41:05.983Z,13.83
2022-09-26T06:42:05.958Z,13.78
2022-09-26T06:43:05.968Z,13.79
2022-09-26T06:44:05.915Z,13.81
2022-09-26T06:45:05.935Z,13.77
2022-09-26T06:46:05.926Z,13.67
2022-09-26T06:47:05.987Z,13.68
2022-09-26T06:48:05.898Z,13.75
2022-09-26T06:49:05.897Z,13.71
2022-09-26T06:50:05.867Z,13.77
2022-09-26T06:51:05.869Z,13.68
2022-09-26T06:52:05.850Z,13.79
2022-09-26T06:53:05.867Z,13.75
2022-09-26T06:54:05.813Z,13.81
2022-09-26T06:55:05.821Z,13.78
2022-09-26T06:56:05.836Z,13.81
2022-09-26T06:57:05.817Z,13.85
2022-09-26T06:58:05.770Z,13.79
2022-09-26T06:59:05.754Z,13.93
2022-09-26T07:00:05.765Z,13.92
2022-09-26T07:01:05.880Z,13.93
2022-09-26T07:02:05.872Z,13.92
2022-09-26T07:03:05.749Z,13.96
2022-09-26T07:04:05.761Z,13.96
2022-09-26T07:05:05.702Z,13.92
2022-09-26T07:06:05.681Z,13.97
2022-09-26T07:07:05.689Z,13.96
2022-09-26T07:08:05.661Z,13.99
2022-09-26T07:09:11.287Z,13.99
2022-09-26T07:10:06.669Z,14.12
2022-09-26T07:11:28.273Z,14.14
2022-09-26T07:12:15.279Z,14.20
2022-09-26T07:13:06.708Z,14.17
2022-09-26T07:14:05.589Z,14.32
2022-09-26T07:15:05.633Z,14.32
2022-09-26T07:16:05.650Z,14.47
2022-09-26T07:17:05.610Z,14.58
2022-09-26T07:18:05.579Z,14.55
2022-09-26T07:19:05.578Z,14.68
2022-09-26T07:20:05.544Z,14.72
2022-09-26T07:21:05.566Z,14.84
2022-09-26T07:22:05.509Z,14.85
2022-09-26T07:23:05.523Z,14.82
2022-09-26T07:24:05.499Z,14.81
2022-09-26T07:25:05.651Z,14.96
2022-09-26T07:26:05.459Z,14.99
2022-09-26T07:27:05.539Z,15.03
2022-09-26T07:28:05.444Z,15.06
2022-09-26T07:29:05.602Z,15.10
2022-09-26T07:30:05.416Z,15.14
2022-09-26T07:31:05.541Z,15.10
2022-09-26T07:32:05.414Z,15.14
2022-09-26T07:33:05.389Z,15.10
2022-09-26T07:34:05.391Z,15.04
2022-09-26T07:35:05.386Z,15.04
2022-09-26T07:36:05.797Z,15.11
2022-09-26T07:37:05.348Z,15.06
2022-09-26T07:38:05.324Z,15.15
2022-09-26T07:39:05.313Z,15.15
2022-09-26T07:40:05.321Z,15.22
2022-09-26T07:41:05.354Z,15.03
2022-09-26T07:42:05.323Z,15.07
2022-09-26T07:43:24.151Z,15.19
2022-09-26T07:45:28.790Z,15.36
2022-09-26T07:46:06.413Z,15.44
2022-09-26T07:47:05.340Z,15.35
2022-09-26T07:48:05.212Z,15.21
2022-09-26T07:49:05.201Z,15.14
2022-09-26T07:50:05.214Z,15.17
2022-09-26T07:51:09.126Z,15.35
2022-09-26T07:52:05.212Z,15.40
2022-09-26T07:53:05.160Z,15.33
2022-09-26T07:54:05.181Z,15.49
2022-09-26T07:55:05.147Z,15.47
2022-09-26T07:56:05.133Z,15.61
2022-09-26T07:57:05.146Z,15.52
2022-09-26T07:58:05.111Z,15.70
2022-09-26T07:59:05.148Z,15.76
2022-09-26T08:00:05.084Z,15.88
2022-09-26T08:01:05.075Z,15.88
2022-09-26T08:02:05.204Z,16.09
2022-09-26T08:03:05.198Z,16.12
2022-09-26T08:04:05.038Z,16.20
2022-09-26T08:05:05.098Z,16.09
2022-09-26T08:06:05.025Z,16.04
2022-09-26T08:07:05.035Z,16.16
2022-09-26T08:08:05.059Z,16.09
2022-09-26T08:09:05.015Z,16.09
2022-09-26T08:10:04.996Z,16.02
2022-09-26T08:11:04.995Z,15.91
2022-09-26T08:12:04.971Z,15.80
2022-09-26T08:13:04.960Z,15.86
2022-09-26T08:14:04.933Z,15.83
2022-09-26T08:15:04.939Z,15.83
2022-09-26T08:16:05.051Z,15.97
2022-09-26T08:17:04.893Z,16.08
2022-09-26T08:18:04.910Z,16.08
2022-09-26T08:19:04.877Z,16.08
2022-09-26T08:20:04.874Z,16.04
2022-09-26T08:21:04.848Z,16.05
2022-09-26T08:22:04.851Z,16.05
2022-09-26T08:23:04.822Z,16.00
2022-09-26T08:24:04.851Z,16.09
2022-09-26T08:25:04.823Z,16.21
2022-09-26T08:26:04.791Z,16.15
2022-09-26T08:27:04.819Z,16.31
2022-09-26T08:28:04.781Z,16.41
2022-09-26T08:29:04.808Z,16.65
2022-09-26T08:30:04.822Z,16.78
2022-09-26T08:31:04.849Z,16.91
2022-09-26T08:32:04.760Z,16.99
2022-09-26T08:33:04.737Z,16.74
2022-09-26T08:34:04.731Z,16.93
2022-09-26T08:35:04.700Z,16.97
2022-09-26T08:36:04.688Z,17.08
2022-09-26T08:37:04.683Z,17.04
2022-09-26T08:38:04.691Z,17.06
2022-09-26T08:39:04.673Z,17.12
2022-09-26T08:40:04.672Z,17.34
2022-09-26T08:41:04.727Z,17.54
2022-09-26T08:42:04.638Z,17.60
2022-09-26T08:43:04.612Z,17.83
2022-09-26T08:44:04.605Z,18.40
2022-09-26T08:45:04.604Z,19.24
2022-09-26T08:46:04.684Z,20.31
2022-09-26T08:47:04.610Z,21.17
2022-09-26T08:48:04.552Z,22.41
2022-09-26T08:49:04.553Z,23.23
2022-09-26T08:50:04.561Z,24.20
2022-09-26T08:51:04.537Z,24.88
2022-09-26T08:52:04.532Z,25.88
2022-09-26T08:53:04.495Z,26.96
2022-09-26T08:54:04.502Z,27.70
2022-09-26T08:55:04.467Z,28.35
2022-09-26T08:56:04.571Z,28.72
2022-09-26T08:57:04.462Z,29.27
2022-09-26T08:58:04.447Z,29.59
2022-09-26T08:59:04.433Z,29.69
2022-09-26T09:00:04.417Z,30.10
2022-09-26T09:01:04.424Z,30.80
2022-09-26T09:02:04.590Z,31.43
2022-09-26T09:03:04.445Z,32.18
2022-09-26T09:04:04.412Z,32.82
2022-09-26T09:05:04.375Z,33.11
2022-09-26T09:06:04.378Z,32.89
2022-09-26T09:07:04.363Z,33.08
2022-09-26T09:08:04.419Z,31.56
2022-09-26T09:09:04.333Z,31.24
2022-09-26T09:10:04.326Z,30.08
2022-09-26T09:11:04.313Z,29.84
2022-09-26T09:12:04.339Z,30.53
2022-09-26T09:13:04.292Z,31.06
2022-09-26T09:14:04.280Z,31.24
2022-09-26T09:15:26.647Z,31.92
2022-09-26T09:16:05.325Z,32.30
2022-09-26T09:17:04.255Z,32.08
2022-09-26T09:18:04.279Z,30.97
2022-09-26T09:19:04.230Z,30.66
2022-09-26T09:20:04.215Z,30.25
2022-09-26T09:21:04.226Z,30.05
2022-09-26T09:22:04.199Z,29.82
2022-09-26T09:23:04.199Z,29.05
2022-09-26T09:24:04.194Z,28.54
2022-09-26T09:25:04.203Z,27.60
2022-09-26T09:28:08.407Z,27.18
2022-09-26T09:29:04.592Z,28.32
2022-09-26T09:30:15.697Z,28.76
2022-09-26T09:31:05.198Z,27.86
2022-09-26T09:32:04.107Z,28.08
2022-09-26T09:33:04.149Z,28.49
2022-09-26T09:34:04.097Z,28.14
2022-09-26T09:35:04.067Z,26.63
2022-09-26T09:36:04.080Z,26.09
2022-09-26T09:37:04.063Z,25.88
2022-09-26T09:38:04.043Z,25.55
2022-09-26T09:39:04.060Z,25.72
2022-09-26T09:40:04.018Z,26.75
2022-09-26T09:41:04.095Z,27.48
2022-09-26T09:42:04.001Z,28.64
2022-09-26T09:43:03.986Z,29.93
2022-09-26T09:44:03.990Z,30.05
2022-09-26T09:45:03.998Z,30.09
2022-09-26T09:46:04.028Z,30.28
2022-09-26T09:47:03.978Z,30.19
2022-09-26T09:48:03.950Z,30.15
2022-09-26T09:49:03.956Z,29.26
2022-09-26T09:50:03.923Z,29.54
2022-09-26T09:51:03.908Z,29.56
2022-09-26T09:52:03.889Z,29.31
2022-09-26T09:53:03.890Z,28.54
2022-09-26T09:54:03.898Z,28.56
2022-09-26T09:55:03.871Z,27.64
2022-09-26T09:56:06.481Z,26.75
2022-09-26T09:57:03.855Z,25.55
2022-09-26T09:58:03.837Z,24.95
2022-09-26T09:59:03.830Z,24.65
2022-09-26T10:00:03.863Z,23.50
2022-09-26T10:01:03.821Z,23.09
2022-09-26T10:02:03.806Z,22.76
2022-09-26T10:03:04.539Z,22.66
2022-09-26T10:04:03.776Z,22.66
2022-09-26T10:05:03.773Z,22.23
2022-09-26T10:06:03.786Z,21.76
2022-09-26T10:07:03.749Z,21.33
2022-09-26T10:08:03.759Z,21.07
2022-09-26T10:09:35.975Z,20.96
2022-09-26T10:10:04.712Z,21.00
2022-09-26T10:11:03.699Z,21.02
2022-09-26T10:12:03.708Z,21.15
2022-09-26T10:13:03.677Z,21.12
2022-09-26T10:14:03.679Z,21.15
2022-09-26T10:15:03.666Z,20.90
2022-09-26T10:16:03.718Z,20.77
2022-09-26T10:17:03.675Z,20.77
2022-09-26T10:18:23.396Z,20.66
2022-09-26T10:19:04.618Z,20.48
2022-09-26T10:20:03.610Z,20.50
2022-09-26T10:21:03.601Z,20.39
2022-09-26T10:22:03.633Z,20.29
2022-09-26T10:23:03.608Z,20.19
2022-09-26T10:24:03.559Z,19.92
2022-09-26T10:25:03.583Z,19.73
2022-09-26T10:26:03.571Z,19.64
2022-09-26T10:27:03.554Z,19.40
2022-09-26T10:28:03.532Z,19.29
2022-09-26T10:29:03.508Z,19.16
2022-09-26T10:30:03.504Z,19.07
2022-09-26T10:31:03.596Z,18.95
2022-09-26T10:32:03.498Z,18.89
2022-09-26T10:33:03.489Z,18.63
2022-09-26T10:34:03.456Z,18.49
2022-09-26T10:35:03.454Z,18.43
2022-09-26T10:36:03.448Z,18.43
2022-09-26T10:37:03.412Z,18.47
2022-09-26T10:38:03.402Z,18.59
2022-09-26T10:39:03.404Z,18.70
2022-09-26T10:40:03.388Z,18.59
2022-09-26T10:41:03.591Z,18.53
2022-09-26T10:42:03.409Z,18.43
2022-09-26T10:43:04.037Z,18.52
2022-09-26T10:44:03.338Z,18.59
2022-09-26T10:45:03.339Z,18.66
2022-09-26T10:46:03.466Z,18.63
2022-09-26T10:47:03.360Z,18.63
2022-09-26T10:48:03.318Z,18.53
2022-09-26T10:49:03.300Z,18.49
2022-09-26T10:50:03.269Z,18.53
2022-09-26T10:51:03.287Z,18.38
2022-09-26T10:52:03.253Z,18.22
2022-09-26T10:53:03.264Z,18.08
2022-09-26T10:54:03.246Z,18.18
2022-09-26T10:55:03.224Z,18.13
2022-09-26T10:56:03.210Z,18.25
2022-09-26T10:57:03.204Z,18.16
2022-09-26T10:58:03.182Z,18.19
2022-09-26T10:59:03.199Z,18.25
2022-09-26T11:00:03.170Z,17.92
2022-09-26T11:01:03.151Z,17.92
2022-09-26T11:02:03.197Z,18.00
2022-09-26T11:03:03.151Z,17.98
2022-09-26T11:04:03.216Z,17.85
2022-09-26T11:05:03.111Z,17.86
2022-09-26T11:06:03.104Z,17.79
2022-09-26T11:07:03.086Z,17.76
2022-09-26T11:08:03.089Z,17.71
2022-09-26T11:09:03.119Z,17.64
2022-09-26T11:10:03.087Z,17.56
2022-09-26T11:11:03.100Z,17.67
2022-09-26T11:12:03.030Z,17.64
2022-09-26T11:13:03.022Z,17.65
2022-09-26T11:14:03.008Z,17.59
2022-09-26T11:15:03.020Z,17.56
2022-09-26T11:16:03.130Z,17.54
2022-09-26T11:17:02.985Z,17.51
2022-09-26T11:18:02.964Z,17.48
2022-09-26T11:19:02.957Z,17.57
2022-09-26T11:20:02.968Z,17.57
2022-09-26T11:21:02.971Z,17.71
2022-09-26T11:22:07.295Z,17.79
2022-09-26T11:23:03.923Z,17.82
2022-09-26T11:24:02.910Z,17.79
2022-09-26T11:25:02.896Z,17.97
2022-09-26T11:26:02.894Z,17.87
2022-09-26T11:27:02.874Z,18.04
2022-09-26T11:28:02.854Z,18.20
2022-09-26T11:29:02.956Z,18.19
2022-09-26T11:30:02.849Z,18.16
2022-09-26T11:31:02.884Z,18.20
2022-09-26T11:32:02.830Z,18.01
2022-09-26T11:33:02.824Z,18.07
2022-09-26T11:34:02.798Z,18.04
2022-09-26T11:35:02.787Z,18.18
2022-09-26T11:36:02.785Z,18.28
2022-09-26T11:37:02.768Z,18.18
2022-09-26T11:38:02.785Z,18.33
2022-09-26T11:39:02.755Z,18.25
2022-09-26T11:40:06.085Z,18.33
2022-09-26T11:41:03.797Z,18.28
2022-09-26T11:42:02.707Z,18.22
2022-09-26T11:43:02.696Z,18.40
2022-09-26T11:44:02.699Z,18.40
2022-09-26T11:45:02.681Z,18.38
2022-09-26T11:46:02.759Z,18.52
2022-09-26T11:47:02.649Z,18.41
2022-09-26T11:48:02.643Z,18.25
2022-09-26T11:49:02.621Z,18.38
2022-09-26T11:50:02.630Z,18.37
2022-09-26T11:51:02.625Z,18.55
2022-09-26T11:52:02.639Z,18.43
2022-09-26T11:53:02.585Z,18.44
2022-09-26T11:54:02.594Z,18.56
2022-09-26T11:55:02.559Z,18.65
2022-09-26T11:56:02.560Z,18.60
2022-09-26T11:57:02.564Z,18.60
2022-09-26T11:58:03.640Z,18.59
2022-09-26T11:59:02.551Z,18.38
2022-09-26T12:00:02.504Z,18.34
2022-09-26T12:01:02.495Z,18.28
2022-09-26T12:02:02.482Z,18.19
2022-09-26T12:03:02.609Z,18.28
2022-09-26T12:04:02.587Z,18.13
2022-09-26T12:05:02.521Z,18.10
2022-09-26T12:06:02.448Z,18.04
2022-09-26T12:07:02.457Z,18.00
2022-09-26T12:08:02.430Z,17.90
2022-09-26T12:09:02.406Z,17.94
2022-09-26T12:10:02.391Z,17.92
2022-09-26T12:11:02.394Z,17.98
2022-09-26T12:12:02.434Z,17.90
2022-09-26T12:13:02.368Z,18.01
2022-09-26T12:14:02.361Z,18.00
2022-09-26T12:15:02.430Z,18.20
2022-09-26T12:16:02.465Z,18.37
2022-09-26T12:17:02.348Z,18.60
2022-09-26T12:18:02.308Z,18.73
2022-09-26T12:19:02.305Z,18.74
2022-09-26T12:20:02.343Z,18.99
2022-09-26T12:21:02.276Z,19.09
2022-09-26T12:22:02.265Z,19.07
2022-09-26T12:23:02.272Z,18.90
2022-09-26T12:24:02.259Z,18.92
2022-09-26T12:25:02.230Z,18.80
2022-09-26T12:26:02.232Z,18.81
2022-09-26T12:27:02.213Z,18.71
2022-09-26T12:28:02.197Z,18.80
2022-09-26T12:29:02.212Z,18.58
2022-09-26T12:30:02.208Z,18.60
2022-09-26T12:31:02.222Z,18.55
2022-09-26T12:32:02.155Z,18.55
2022-09-26T12:33:02.144Z,18.50
2022-09-26T12:34:02.176Z,18.47
2022-09-26T12:35:02.125Z,18.50
2022-09-26T12:36:02.186Z,18.52
2022-09-26T12:37:02.100Z,18.53
2022-09-26T12:38:02.082Z,18.41
2022-09-26T12:39:02.078Z,18.37
2022-09-26T12:40:02.087Z,18.11
2022-09-26T12:41:02.082Z,18.10
2022-09-26T12:42:02.033Z,18.22
2022-09-26T12:43:02.024Z,18.11
2022-09-26T12:44:02.020Z,18.04
2022-09-26T12:45:02.022Z,17.86
2022-09-26T12:46:02.056Z,17.92
2022-09-26T12:47:02.128Z,17.85
2022-09-26T12:48:01.977Z,17.82
2022-09-26T12:49:01.997Z,17.82
2022-09-26T12:50:01.944Z,17.90
2022-09-26T12:51:01.943Z,17.94
2022-09-26T12:52:01.980Z,17.94
2022-09-26T12:53:01.932Z,18.03
2022-09-26T12:54:01.905Z,18.01
2022-09-26T12:55:01.899Z,18.03